Time;durP1;ratioP1;P1;durP2;ratioP2;P2;SDS_P1;SDS_P2;PMS_P1;PMS_P2;Temp;Humidity;BMP_temperature;BMP_pressure;BME280_temperature;BME280_humidity;BME280_pressure;Samples;Min_cycle;Max_cycle;Signal;HPM_P1;HPM_P2
2022/11/12 00:01:38;;;;;;;;;;;7.60;99.90;;;;;;5017923;28;19937;-71
2022/11/12 00:04:23;;;;;;;;;;;7.60;99.90;;;;;;5022147;28;19932;-72
2022/11/12 00:07:09;;;;;;;;;;;7.60;99.90;;;;;;5019739;28;19987;-71
2022/11/12 00:09:54;;;;;;;;;;;7.60;99.90;;;;;;5017754;28;19932;-71
2022/11/12 00:12:39;;;;;;;;;;;7.60;99.90;;;;;;5018261;28;22070;-72
2022/11/12 00:15:25;;;;;;;;;;;7.60;99.90;;;;;;5021194;28;19943;-72
2022/11/12 00:18:12;;;;;;;;;;;7.60;99.90;;;;;;5023128;28;19944;-72
2022/11/12 00:20:57;;;;;;;;;;;7.60;99.90;;;;;;5018694;28;19932;-72
2022/11/12 00:23:43;;;;;;;;;;;7.60;99.90;;;;;;5016216;28;19936;-71
2022/11/12 00:26:28;;;;;;;;;;;7.60;99.90;;;;;;5022938;28;19931;-71
2022/11/12 00:29:13;;;;;;;;;;;7.60;99.90;;;;;;5026546;28;19932;-71
2022/11/12 00:31:58;;;;;;;;;;;7.50;99.90;;;;;;5022720;28;19932;-71
2022/11/12 00:34:45;;;;;;;;;;;7.50;99.90;;;;;;5024769;28;20039;-71
2022/11/12 00:37:31;;;;;;;;;;;7.50;99.90;;;;;;5025135;28;20051;-71
2022/11/12 00:40:16;;;;;;;;;;;7.60;99.90;;;;;;5025828;28;19932;-71
2022/11/12 00:43:01;;;;;;;;;;;7.50;99.90;;;;;;5022426;28;20030;-71
2022/11/12 00:45:46;;;;;;;;;;;7.50;99.90;;;;;;5021846;28;19932;-71
2022/11/12 00:48:31;;;;;;;;;;;7.50;99.90;;;;;;5020530;28;20311;-71
2022/11/12 00:51:18;;;;;;;;;;;7.50;99.90;;;;;;5018871;28;20296;-72
2022/11/12 00:54:03;;;;;;;;;;;7.50;99.90;;;;;;5028170;28;19941;-71
2022/11/12 00:56:48;;;;;;;;;;;7.50;99.90;;;;;;5022783;28;19931;-72
2022/11/12 00:59:34;;;;;;;;;;;7.50;99.90;;;;;;5019168;28;19935;-72
2022/11/12 01:02:21;;;;;;;;;;;7.50;99.90;;;;;;5025700;28;19932;-72
2022/11/12 01:05:06;;;;;;;;;;;7.50;99.90;;;;;;5026205;28;20588;-71
2022/11/12 01:07:53;;;;;;;;;;;7.50;99.90;;;;;;5020908;28;20064;-72
2022/11/12 01:10:38;;;;;;;;;;;7.50;99.90;;;;;;5024028;28;19932;-71
2022/11/12 01:13:23;;;;;;;;;;;7.50;99.90;;;;;;5023796;28;19931;-73
2022/11/12 01:16:10;;;;;;;;;;;7.50;99.90;;;;;;5018986;28;20426;-71
2022/11/12 01:18:57;;;;;;;;;;;7.50;99.90;;;;;;5015440;28;20020;-71
2022/11/12 01:21:43;;;;;;;;;;;7.50;99.90;;;;;;5020533;28;19934;-72
2022/11/12 01:24:30;;;;;;;;;;;7.50;99.90;;;;;;5017047;28;20077;-71
2022/11/12 01:27:15;;;;;;;;;;;7.50;99.90;;;;;;5017954;28;19963;-72
2022/11/12 01:30:01;;;;;;;;;;;7.50;99.90;;;;;;5019086;28;20525;-71
2022/11/12 01:32:47;;;;;;;;;;;7.50;99.90;;;;;;5017718;28;19932;-71
2022/11/12 01:35:32;;;;;;;;;;;7.40;99.90;;;;;;5014852;28;19936;-72
2022/11/12 01:38:17;;;;;;;;;;;7.40;99.90;;;;;;5024905;28;20132;-71
2022/11/12 01:41:05;;;;;;;;;;;7.40;99.90;;;;;;5018301;28;20418;-71
2022/11/12 01:44:05;;;;;;;;;;;7.40;99.90;;;;;;5020657;28;20014;-71
2022/11/12 01:46:55;;;;;;;;;;;7.40;99.90;;;;;;5023173;28;19940;-71
2022/11/12 01:49:42;;;;;;;;;;;7.40;99.90;;;;;;5021790;28;19978;-71
2022/11/12 01:52:29;;;;;;;;;;;7.40;99.90;;;;;;5018956;28;19939;-71
2022/11/12 01:55:20;;;;;;;;;;;7.40;99.90;;;;;;5018692;28;20043;-71
2022/11/12 01:58:08;;;;;;;;;;;7.40;99.90;;;;;;5019810;28;19945;-71
2022/11/12 02:00:54;;;;;;;;;;;7.40;99.90;;;;;;5021302;28;20000;-71
2022/11/12 02:03:39;;;;;;;;;;;7.40;99.90;;;;;;5021731;28;20399;-72
2022/11/12 02:06:24;;;;;;;;;;;7.40;99.90;;;;;;5022004;28;20007;-71
2022/11/12 02:09:10;;;;;;;;;;;7.40;99.90;;;;;;5018510;28;19952;-71
2022/11/12 02:11:55;;;;;;;;;;;7.30;99.90;;;;;;5017794;28;20322;-71
2022/11/12 02:14:41;;;;;;;;;;;7.30;99.90;;;;;;5021029;28;19932;-72
2022/11/12 02:17:26;;;;;;;;;;;7.40;99.90;;;;;;5024148;28;19979;-72
2022/11/12 02:20:13;;;;;;;;;;;7.30;99.90;;;;;;5082098;22;20814;-75
2022/11/12 02:22:59;;;;;;;;;;;7.30;99.90;;;;;;5000454;28;20023;-75
2022/11/12 02:25:44;;;;;;;;;;;7.30;99.90;;;;;;4998327;28;20092;-75
2022/11/12 02:28:30;;;;;;;;;;;7.30;99.90;;;;;;4994197;28;20880;-75
2022/11/12 02:31:16;;;;;;;;;;;7.30;99.90;;;;;;4991573;28;19931;-74
2022/11/12 02:34:01;;;;;;;;;;;7.30;99.90;;;;;;4996185;28;19979;-75
2022/11/12 02:36:46;;;;;;;;;;;7.30;99.90;;;;;;4999102;28;19948;-75
2022/11/12 02:39:33;;;;;;;;;;;7.30;99.90;;;;;;4994954;28;19932;-75
2022/11/12 02:42:19;;;;;;;;;;;7.30;99.90;;;;;;4994838;28;19984;-75
2022/11/12 02:45:04;;;;;;;;;;;7.30;99.90;;;;;;4998852;28;19933;-75
2022/11/12 02:47:50;;;;;;;;;;;7.30;99.90;;;;;;4990610;28;20741;-75
2022/11/12 02:50:35;;;;;;;;;;;7.30;99.90;;;;;;5007131;28;19931;-75
2022/11/12 02:53:20;;;;;;;;;;;7.30;99.90;;;;;;4999550;28;19983;-75
2022/11/12 02:56:07;;;;;;;;;;;7.30;99.90;;;;;;4997658;28;19948;-75
2022/11/12 02:58:52;;;;;;;;;;;7.30;99.90;;;;;;4997963;28;19941;-75
2022/11/12 03:01:37;;;;;;;;;;;7.30;99.90;;;;;;5001731;28;20408;-74
2022/11/12 03:04:23;;;;;;;;;;;7.30;99.90;;;;;;4997136;28;19933;-75
2022/11/12 03:07:09;;;;;;;;;;;7.30;99.90;;;;;;4999420;28;20011;-75
2022/11/12 03:09:54;;;;;;;;;;;7.30;99.90;;;;;;4994607;28;19940;-75
2022/11/12 03:12:41;;;;;;;;;;;7.30;99.90;;;;;;4998118;28;20414;-75
2022/11/12 03:15:26;;;;;;;;;;;7.30;99.90;;;;;;5001974;28;20007;-75
2022/11/12 03:18:11;;;;;;;;;;;7.30;99.90;;;;;;4998417;28;19964;-75
2022/11/12 03:20:56;;;;;;;;;;;7.20;99.90;;;;;;5002460;28;19932;-75
2022/11/12 03:23:41;;;;;;;;;;;7.20;99.90;;;;;;4995110;28;19932;-75
2022/11/12 03:26:26;;;;;;;;;;;7.20;99.90;;;;;;4998058;28;20398;-75
2022/11/12 03:29:13;;;;;;;;;;;7.20;99.90;;;;;;4997838;28;19932;-75
2022/11/12 03:31:58;;;;;;;;;;;7.20;99.90;;;;;;4999252;28;19933;-76
2022/11/12 03:34:43;;;;;;;;;;;7.20;99.90;;;;;;5002845;28;19948;-75
2022/11/12 03:37:29;;;;;;;;;;;7.20;99.90;;;;;;4991674;28;20091;-75
2022/11/12 03:40:14;;;;;;;;;;;7.20;99.90;;;;;;4999398;28;19932;-75
2022/11/12 03:42:59;;;;;;;;;;;7.20;99.90;;;;;;5000567;28;19937;-75
2022/11/12 03:45:46;;;;;;;;;;;7.20;99.90;;;;;;5003073;28;20000;-75
2022/11/12 03:48:31;;;;;;;;;;;7.20;99.90;;;;;;4998550;28;20008;-75
2022/11/12 03:51:20;;;;;;;;;;;7.20;99.90;;;;;;4996895;28;19972;-75
2022/11/12 03:54:05;;;;;;;;;;;7.20;99.90;;;;;;4999784;28;19946;-74
2022/11/12 03:56:50;;;;;;;;;;;7.20;99.90;;;;;;4990447;28;20027;-74
2022/11/12 03:59:35;;;;;;;;;;;7.10;99.90;;;;;;4997230;28;20544;-75
2022/11/12 04:02:24;;;;;;;;;;;7.20;99.90;;;;;;4992979;28;19932;-75
2022/11/12 04:11:19;;;;;;;;;;;7.10;99.90;;;;;;4997336;28;19952;-75
2022/11/12 04:14:04;;;;;;;;;;;7.10;99.90;;;;;;4997347;28;19936;-75
2022/11/12 04:22:57;;;;;;;;;;;7.10;99.90;;;;;;4986884;28;19988;-75
2022/11/12 04:31:44;;;;;;;;;;;7.10;99.90;;;;;;4990659;28;19928;-75
2022/11/12 04:34:29;;;;;;;;;;;7.10;99.90;;;;;;4995929;28;20045;-75
2022/11/12 04:37:16;;;;;;;;;;;7.10;99.90;;;;;;4991378;28;19932;-75
2022/11/12 04:44:58;;;;;;;;;;;7.10;99.90;;;;;;4993237;28;20327;-75
2022/11/12 04:46:12;;;;;;;;;;;7.10;99.90;;;;;;4993694;28;20005;-75
2022/11/12 04:48:57;;;;;;;;;;;7.10;99.90;;;;;;4994989;28;19940;-75
2022/11/12 04:54:47;;;;;;;;;;;7.10;99.90;;;;;;5000387;28;19928;-75
2022/11/12 04:57:32;;;;;;;;;;;7.10;99.90;;;;;;4997682;28;20026;-75
2022/11/12 05:00:17;;;;;;;;;;;7.10;99.90;;;;;;4996621;28;19941;-75
2022/11/12 05:03:03;;;;;;;;;;;7.00;99.90;;;;;;4998727;28;20052;-75
2022/11/12 05:05:48;;;;;;;;;;;7.00;99.90;;;;;;4998396;28;19945;-75
2022/11/12 05:08:33;;;;;;;;;;;7.10;99.90;;;;;;5001114;28;19940;-75
2022/11/12 05:11:20;;;;;;;;;;;7.00;99.90;;;;;;4999562;28;19952;-74
2022/11/12 05:14:05;;;;;;;;;;;7.10;99.90;;;;;;4997807;28;19940;-75
2022/11/12 05:16:51;;;;;;;;;;;7.10;99.90;;;;;;4999497;28;19936;-74
2022/11/12 05:19:36;;;;;;;;;;;7.00;99.90;;;;;;5000640;28;19932;-75
2022/11/12 05:22:21;;;;;;;;;;;7.00;99.90;;;;;;5004571;28;20368;-75
2022/11/12 05:25:07;;;;;;;;;;;7.00;99.90;;;;;;4998739;28;19932;-74
2022/11/12 05:27:54;;;;;;;;;;;7.00;99.90;;;;;;4992492;28;19992;-75
2022/11/12 05:30:39;;;;;;;;;;;7.00;99.90;;;;;;4997234;28;20068;-75
2022/11/12 05:33:24;;;;;;;;;;;7.10;99.90;;;;;;4998574;28;19952;-75
2022/11/12 05:36:10;;;;;;;;;;;7.10;99.90;;;;;;5002692;28;19995;-75
2022/11/12 05:38:55;;;;;;;;;;;7.10;99.90;;;;;;4999533;28;20060;-75
2022/11/12 05:41:40;;;;;;;;;;;7.00;99.90;;;;;;4997051;28;19980;-75
2022/11/12 05:44:27;;;;;;;;;;;7.10;99.90;;;;;;4995798;28;20411;-75
2022/11/12 05:47:12;;;;;;;;;;;7.10;99.90;;;;;;4997315;28;19932;-75
2022/11/12 05:49:57;;;;;;;;;;;7.20;99.90;;;;;;5000238;28;19932;-75
2022/11/12 05:52:43;;;;;;;;;;;7.00;99.90;;;;;;4997011;28;19995;-75
2022/11/12 05:55:28;;;;;;;;;;;7.00;99.90;;;;;;4998448;28;20020;-75
2022/11/12 05:58:13;;;;;;;;;;;7.10;99.90;;;;;;5000407;28;19959;-75
2022/11/12 06:01:00;;;;;;;;;;;7.00;99.90;;;;;;4998451;28;20034;-75
2022/11/12 06:03:45;;;;;;;;;;;7.00;99.90;;;;;;4989412;28;19944;-74
2022/11/12 06:06:31;;;;;;;;;;;7.00;99.90;;;;;;4989239;28;19948;-75
2022/11/12 06:09:16;;;;;;;;;;;7.00;99.90;;;;;;4991746;28;20009;-75
2022/11/12 06:12:05;;;;;;;;;;;7.00;99.90;;;;;;4993818;28;19936;-74
2022/11/12 06:14:50;;;;;;;;;;;7.00;99.90;;;;;;4997957;28;20003;-75
2022/11/12 06:17:36;;;;;;;;;;;7.00;99.90;;;;;;4992235;28;19960;-75
2022/11/12 06:20:22;;;;;;;;;;;7.00;99.90;;;;;;4992681;28;20061;-75
2022/11/12 06:23:07;;;;;;;;;;;7.00;99.90;;;;;;4984193;28;20255;-75
2022/11/12 06:25:52;;;;;;;;;;;7.00;99.90;;;;;;4989012;28;19940;-75
2022/11/12 06:28:38;;;;;;;;;;;7.00;99.90;;;;;;4990161;28;19964;-76
2022/11/12 06:31:23;;;;;;;;;;;7.00;99.90;;;;;;4985572;28;19937;-74
2022/11/12 06:34:11;;;;;;;;;;;7.00;99.90;;;;;;4979710;28;20624;-75
2022/11/12 06:36:56;;;;;;;;;;;7.00;99.90;;;;;;4991974;28;19933;-75
2022/11/12 06:39:41;;;;;;;;;;;7.00;99.90;;;;;;4986308;28;19933;-75
2022/11/12 06:42:27;;;;;;;;;;;7.00;99.90;;;;;;4980626;28;19963;-78
2022/11/12 06:45:06;;;;;;;;;;;7.00;99.90;;;;;;5008686;28;19929;-75
2022/11/12 06:47:52;;;;;;;;;;;7.00;99.90;;;;;;5008257;28;20746;-75
2022/11/12 06:50:39;;;;;;;;;;;7.00;99.90;;;;;;5004067;28;19936;-75
2022/11/12 06:53:25;;;;;;;;;;;7.00;99.90;;;;;;5006306;28;20014;-74
2022/11/12 06:56:10;;;;;;;;;;;6.90;99.90;;;;;;5011402;28;19952;-75
2022/11/12 06:58:56;;;;;;;;;;;7.00;99.90;;;;;;5010283;28;19936;-75
2022/11/12 07:01:41;;;;;;;;;;;6.90;99.90;;;;;;5002126;28;20302;-75
2022/11/12 07:04:26;;;;;;;;;;;6.90;99.90;;;;;;5002418;28;19939;-75
2022/11/12 07:07:13;;;;;;;;;;;6.90;99.90;;;;;;5008063;28;20027;-75
2022/11/12 07:09:58;;;;;;;;;;;7.00;99.90;;;;;;5010458;28;19939;-73
2022/11/12 07:12:44;;;;;;;;;;;7.00;99.90;;;;;;5007184;28;20382;-72
2022/11/12 07:15:29;;;;;;;;;;;7.00;99.90;;;;;;5006623;28;19941;-72
2022/11/12 07:18:14;;;;;;;;;;;7.00;99.90;;;;;;5011476;28;19932;-75
2022/11/12 07:21:00;;;;;;;;;;;7.00;99.90;;;;;;5005947;28;19951;-76
2022/11/12 07:23:47;;;;;;;;;;;7.00;99.90;;;;;;5010369;28;20406;-75
2022/11/12 07:26:32;;;;;;;;;;;7.00;99.90;;;;;;5011240;28;19936;-74
2022/11/12 07:29:17;;;;;;;;;;;7.00;99.90;;;;;;5007831;28;19976;-74
2022/11/12 07:32:02;;;;;;;;;;;7.00;99.90;;;;;;5004931;28;21365;-74
2022/11/12 07:34:49;;;;;;;;;;;7.00;99.90;;;;;;5006847;28;20576;-73
2022/11/12 07:37:35;;;;;;;;;;;7.00;99.90;;;;;;5011684;28;19940;-74
2022/11/12 07:40:21;;;;;;;;;;;7.00;99.90;;;;;;4995212;28;20489;-73
2022/11/12 07:43:07;;;;;;;;;;;7.00;99.90;;;;;;5012081;28;19987;-73
2022/11/12 07:45:52;;;;;;;;;;;7.00;99.90;;;;;;5008582;28;19932;-73
2022/11/12 07:48:38;;;;;;;;;;;7.00;99.90;;;;;;5018721;28;20402;-74
2022/11/12 07:51:24;;;;;;;;;;;7.00;99.90;;;;;;5013844;28;20563;-75
2022/11/12 07:54:10;;;;;;;;;;;7.00;99.90;;;;;;5011837;28;19953;-77
2022/11/12 07:56:56;;;;;;;;;;;7.00;99.90;;;;;;5010809;28;19936;-76
2022/11/12 07:59:42;;;;;;;;;;;7.00;99.90;;;;;;5010615;28;19940;-75
2022/11/12 08:02:28;;;;;;;;;;;7.00;99.90;;;;;;5013838;28;19947;-78
2022/11/12 08:05:13;;;;;;;;;;;7.00;99.90;;;;;;5014600;28;19932;-76
2022/11/12 08:07:58;;;;;;;;;;;7.00;99.90;;;;;;5019246;28;19932;-75
2022/11/12 08:10:43;;;;;;;;;;;7.00;99.90;;;;;;5016172;28;19936;-75
2022/11/12 08:13:30;;;;;;;;;;;7.00;99.90;;;;;;5015890;28;19932;-72
2022/11/12 08:16:16;;;;;;;;;;;7.00;99.90;;;;;;5011653;28;20406;-73
2022/11/12 08:19:01;;;;;;;;;;;7.00;99.90;;;;;;5015715;28;19931;-77
2022/11/12 08:21:46;;;;;;;;;;;7.00;99.90;;;;;;5012667;28;19932;-75
2022/11/12 08:24:31;;;;;;;;;;;7.00;99.90;;;;;;5020089;28;20025;-71
2022/11/12 08:27:17;;;;;;;;;;;7.00;99.90;;;;;;5007711;28;20445;-72
2022/11/12 08:30:04;;;;;;;;;;;7.00;99.90;;;;;;5008450;28;19940;-73
2022/11/12 08:32:55;;;;;;;;;;;7.00;99.90;;;;;;5006709;28;20011;-74
2022/11/12 08:35:40;;;;;;;;;;;7.00;99.90;;;;;;5005700;28;19960;-72
2022/11/12 08:38:28;;;;;;;;;;;7.00;99.90;;;;;;5000610;28;19940;-72
2022/11/12 08:41:16;;;;;;;;;;;7.00;99.90;;;;;;5020038;28;19932;-72
2022/11/12 08:44:01;;;;;;;;;;;7.00;99.90;;;;;;5017938;28;20375;-72
2022/11/12 08:46:48;;;;;;;;;;;7.00;99.90;;;;;;5018849;28;20007;-72
2022/11/12 08:49:33;;;;;;;;;;;7.00;99.90;;;;;;5027026;28;19932;-72
2022/11/12 08:52:18;;;;;;;;;;;7.00;99.90;;;;;;5018431;28;19932;-72
2022/11/12 08:55:03;;;;;;;;;;;7.00;99.90;;;;;;5016553;28;20299;-72
2022/11/12 08:57:49;;;;;;;;;;;7.00;99.90;;;;;;5017887;28;19932;-72
2022/11/12 09:00:35;;;;;;;;;;;7.00;99.90;;;;;;5020856;28;19940;-72
2022/11/12 09:03:23;;;;;;;;;;;7.00;99.90;;;;;;5015514;28;20060;-72
2022/11/12 09:06:09;;;;;;;;;;;7.00;99.90;;;;;;5021517;28;19936;-72
2022/11/12 09:08:55;;;;;;;;;;;7.00;99.90;;;;;;5014488;28;20071;-73
2022/11/12 09:11:40;;;;;;;;;;;7.00;99.90;;;;;;5021000;28;20772;-74
2022/11/12 09:14:25;;;;;;;;;;;7.00;99.90;;;;;;5016202;28;19933;-74
2022/11/12 09:17:11;;;;;;;;;;;7.00;99.90;;;;;;5017154;28;19969;-74
2022/11/12 09:20:01;;;;;;;;;;;7.00;99.90;;;;;;5021454;28;19952;-73
2022/11/12 09:22:46;;;;;;;;;;;7.00;99.90;;;;;;5012017;28;19932;-73
2022/11/12 09:25:32;;;;;;;;;;;7.00;99.90;;;;;;5023964;28;19932;-73
2022/11/12 09:28:18;;;;;;;;;;;7.00;99.90;;;;;;5014322;28;19932;-74
2022/11/12 09:31:03;;;;;;;;;;;7.00;99.90;;;;;;5013324;28;20474;-72
2022/11/12 09:33:48;;;;;;;;;;;7.00;99.90;;;;;;5015677;28;19933;-73
2022/11/12 09:36:35;;;;;;;;;;;7.10;99.90;;;;;;5016485;28;20020;-73
2022/11/12 09:39:20;;;;;;;;;;;7.00;99.90;;;;;;5019207;28;20360;-73
2022/11/12 09:42:06;;;;;;;;;;;7.00;99.90;;;;;;5017700;28;20048;-72
2022/11/12 09:44:55;;;;;;;;;;;7.00;99.90;;;;;;5020142;28;19971;-72
2022/11/12 09:47:44;;;;;;;;;;;7.10;99.90;;;;;;5025273;28;20019;-72
2022/11/12 09:50:32;;;;;;;;;;;7.10;99.90;;;;;;5023365;28;19951;-72
2022/11/12 09:53:21;;;;;;;;;;;7.10;99.90;;;;;;5020071;28;20396;-72
2022/11/12 09:56:10;;;;;;;;;;;7.10;99.90;;;;;;5022061;28;19936;-72
2022/11/12 09:58:56;;;;;;;;;;;7.10;99.90;;;;;;5007917;22;19932;-70
2022/11/12 10:01:46;;;;;;;;;;;7.10;99.90;;;;;;4999098;28;20229;-70
2022/11/12 10:04:45;;;;;;;;;;;7.10;99.90;;;;;;5001637;28;19940;-70
2022/11/12 10:07:42;;;;;;;;;;;7.20;99.90;;;;;;4995835;28;20101;-69
2022/11/12 10:10:36;;;;;;;;;;;7.20;99.90;;;;;;4994573;28;19972;-70
2022/11/12 10:13:26;;;;;;;;;;;7.20;99.90;;;;;;4999135;28;19936;-70
2022/11/12 10:19:40;;;;;;;;;;;7.20;99.90;;;;;;4991805;28;19936;-69
2022/11/12 10:22:35;;;;;;;;;;;7.20;99.90;;;;;;4998538;28;20554;-71
2022/11/12 10:25:20;;;;;;;;;;;7.20;99.90;;;;;;4999687;28;20430;-71
2022/11/12 10:28:13;;;;;;;;;;;7.30;99.90;;;;;;4999973;28;19948;-71
2022/11/12 10:31:01;;;;;;;;;;;7.20;99.90;;;;;;4998928;28;20403;-70
2022/11/12 10:33:46;;;;;;;;;;;7.30;99.90;;;;;;4995070;28;20327;-69
2022/11/12 10:36:33;;;;;;;;;;;7.30;99.90;;;;;;4993490;28;20336;-71
2022/11/12 10:39:35;;;;;;;;;;;7.30;99.90;;;;;;5000469;28;19976;-71
2022/11/12 10:42:21;;;;;;;;;;;7.30;99.90;;;;;;4997393;28;20319;-71
2022/11/12 10:45:19;;;;;;;;;;;7.30;99.90;;;;;;4994178;28;19996;-68
2022/11/12 10:48:04;;;;;;;;;;;7.30;99.90;;;;;;4991888;28;19941;-69
2022/11/12 10:50:53;;;;;;;;;;;7.40;99.90;;;;;;5000563;28;19933;-68
2022/11/12 10:53:39;;;;;;;;;;;7.40;99.90;;;;;;4992870;28;19937;-72
2022/11/12 10:56:26;;;;;;;;;;;7.40;99.90;;;;;;4992563;28;20079;-71
2022/11/12 10:59:16;;;;;;;;;;;7.40;99.90;;;;;;4998037;28;20403;-69
2022/11/12 11:02:15;;;;;;;;;;;7.40;99.90;;;;;;4986759;28;19938;-70
2022/11/12 11:05:00;;;;;;;;;;;7.40;99.90;;;;;;4983960;28;19933;-71
2022/11/12 11:07:49;;;;;;;;;;;7.40;99.90;;;;;;4973764;28;20408;-69
2022/11/12 11:10:36;;;;;;;;;;;7.40;99.90;;;;;;4985214;28;19940;-69
2022/11/12 11:13:22;;;;;;;;;;;7.40;99.90;;;;;;4992289;28;19972;-68
2022/11/12 11:16:10;;;;;;;;;;;7.50;99.90;;;;;;4986715;28;20566;-72
2022/11/12 11:18:58;;;;;;;;;;;7.50;99.90;;;;;;4986549;28;19933;-69
2022/11/12 11:21:58;;;;;;;;;;;7.50;99.90;;;;;;4986427;28;19941;-78
2022/11/12 11:24:49;;;;;;;;;;;7.50;99.90;;;;;;4982559;28;19936;-69
2022/11/12 11:27:37;;;;;;;;;;;7.50;99.90;;;;;;4991603;28;20064;-71
2022/11/12 11:30:23;;;;;;;;;;;7.50;99.90;;;;;;4990340;28;20491;-79
2022/11/12 11:33:22;;;;;;;;;;;7.50;99.90;;;;;;4987076;28;19941;-69
2022/11/12 11:36:18;;;;;;;;;;;7.50;99.90;;;;;;4989202;28;19936;-73
2022/11/12 11:39:13;;;;;;;;;;;7.60;99.90;;;;;;4991357;28;19968;-68
2022/11/12 11:42:05;;;;;;;;;;;7.60;99.90;;;;;;4995428;28;20686;-71
2022/11/12 11:44:57;;;;;;;;;;;7.60;99.90;;;;;;4991636;28;19948;-73
2022/11/12 11:47:47;;;;;;;;;;;7.60;99.90;;;;;;4990792;28;19960;-73
2022/11/12 11:50:33;;;;;;;;;;;7.60;99.90;;;;;;4990292;28;20020;-71
2022/11/12 11:53:23;;;;;;;;;;;7.60;99.90;;;;;;4987453;28;19933;-74
2022/11/12 11:56:14;;;;;;;;;;;7.60;99.90;;;;;;4995638;28;20342;-76
2022/11/12 11:59:04;;;;;;;;;;;7.60;99.90;;;;;;4993237;28;20673;-72
2022/11/12 12:02:04;;;;;;;;;;;7.60;99.90;;;;;;4988287;28;19937;-74
2022/11/12 12:04:51;;;;;;;;;;;7.70;99.90;;;;;;4992035;28;19937;-76
2022/11/12 12:07:41;;;;;;;;;;;7.70;99.90;;;;;;4997403;28;19933;-72
2022/11/12 12:10:31;;;;;;;;;;;7.70;99.90;;;;;;4987305;28;19932;-76
2022/11/12 12:13:21;;;;;;;;;;;7.70;99.90;;;;;;4992522;28;19971;-71
2022/11/12 12:16:25;;;;;;;;;;;7.70;99.90;;;;;;4985930;28;20398;-72
2022/11/12 12:19:15;;;;;;;;;;;7.70;99.90;;;;;;4988271;28;19933;-71
2022/11/12 12:22:02;;;;;;;;;;;7.70;99.90;;;;;;4992432;28;20312;-71
2022/11/12 12:24:49;;;;;;;;;;;7.70;99.90;;;;;;4991934;28;19983;-76
2022/11/12 12:27:38;;;;;;;;;;;7.70;99.90;;;;;;4977845;28;19933;-71
2022/11/12 12:30:24;;;;;;;;;;;7.80;99.90;;;;;;4982456;28;19952;-71
2022/11/12 12:33:16;;;;;;;;;;;7.70;99.90;;;;;;4990564;28;20430;-73
2022/11/12 12:36:05;;;;;;;;;;;7.70;99.90;;;;;;4986609;28;19941;-71
2022/11/12 12:38:52;;;;;;;;;;;7.80;99.90;;;;;;4990090;28;20411;-70
2022/11/12 12:41:42;;;;;;;;;;;7.80;99.90;;;;;;4984069;28;19956;-70
2022/11/12 12:47:30;;;;;;;;;;;7.80;99.90;;;;;;4987123;28;20447;-70
2022/11/12 12:50:17;;;;;;;;;;;7.80;99.90;;;;;;4986700;28;19980;-70
2022/11/12 12:53:04;;;;;;;;;;;7.80;99.90;;;;;;4984899;28;20407;-70
2022/11/12 12:55:50;;;;;;;;;;;7.80;99.90;;;;;;4996124;28;19932;-73
2022/11/12 12:58:42;;;;;;;;;;;7.80;99.90;;;;;;4987114;28;20011;-70
2022/11/12 13:01:30;;;;;;;;;;;7.80;99.90;;;;;;4987195;28;19973;-75
2022/11/12 13:04:16;;;;;;;;;;;7.90;99.90;;;;;;4985645;28;19979;-71
2022/11/12 13:07:01;;;;;;;;;;;7.90;99.90;;;;;;4980587;28;19933;-68
2022/11/12 13:09:46;;;;;;;;;;;7.80;99.90;;;;;;4985820;28;19958;-69
2022/11/12 13:12:47;;;;;;;;;;;7.90;99.90;;;;;;4981371;28;19940;-69
2022/11/12 13:15:41;;;;;;;;;;;7.90;99.90;;;;;;4976458;28;19964;-71
2022/11/12 13:18:45;;;;;;;;;;;7.90;99.90;;;;;;4973151;28;19932;-71
2022/11/12 13:21:32;;;;;;;;;;;7.90;99.90;;;;;;4979859;28;19992;-71
2022/11/12 13:24:37;;;;;;;;;;;7.90;99.90;;;;;;4981403;28;19945;-71
2022/11/12 13:27:38;;;;;;;;;;;8.00;99.90;;;;;;4983888;28;19960;-75
2022/11/12 13:30:38;;;;;;;;;;;8.00;99.90;;;;;;4981444;28;20327;-74
2022/11/12 13:33:28;;;;;;;;;;;8.00;99.90;;;;;;4986774;28;19933;-70
2022/11/12 13:36:31;;;;;;;;;;;8.00;99.90;;;;;;4992222;28;19932;-71
2022/11/12 13:39:19;;;;;;;;;;;8.00;99.90;;;;;;4985156;28;19968;-71
2022/11/12 13:45:15;;;;;;;;;;;8.00;99.90;;;;;;4992193;28;19960;-71
2022/11/12 13:48:01;;;;;;;;;;;8.00;99.90;;;;;;4983447;28;19972;-68
2022/11/12 13:50:50;;;;;;;;;;;8.10;99.90;;;;;;4990183;28;19933;-68
2022/11/12 13:53:36;;;;;;;;;;;8.00;99.90;;;;;;4984949;28;19936;-69
2022/11/12 13:56:28;;;;;;;;;;;8.10;99.90;;;;;;4986485;28;19941;-69
2022/11/12 13:59:14;;;;;;;;;;;8.10;99.90;;;;;;4987321;28;20406;-71
2022/11/12 14:02:04;;;;;;;;;;;8.10;99.90;;;;;;4990097;28;20019;-70
2022/11/12 14:04:50;;;;;;;;;;;8.10;99.90;;;;;;4993853;28;19932;-70
2022/11/12 14:07:40;;;;;;;;;;;8.10;99.90;;;;;;4988641;28;19940;-71
2022/11/12 14:10:32;;;;;;;;;;;8.10;99.90;;;;;;4997038;28;19987;-71
2022/11/12 14:13:26;;;;;;;;;;;8.10;99.90;;;;;;4988975;28;19952;-71
2022/11/12 14:16:19;;;;;;;;;;;8.10;99.90;;;;;;4979304;28;19979;-71
2022/11/12 14:19:25;;;;;;;;;;;8.20;99.90;;;;;;4993440;28;20769;-70
2022/11/12 14:22:13;;;;;;;;;;;8.20;99.90;;;;;;4999594;28;19936;-70
2022/11/12 14:24:59;;;;;;;;;;;8.20;99.90;;;;;;4993459;28;20414;-70
2022/11/12 14:27:45;;;;;;;;;;;8.20;99.90;;;;;;4998949;28;20127;-70
2022/11/12 14:30:31;;;;;;;;;;;8.20;99.90;;;;;;4994273;28;19940;-70
2022/11/12 14:33:18;;;;;;;;;;;8.20;99.90;;;;;;4992959;28;19995;-70
2022/11/12 14:36:04;;;;;;;;;;;8.20;99.90;;;;;;4992260;28;19941;-70
2022/11/12 14:38:51;;;;;;;;;;;8.20;99.90;;;;;;4994219;28;20292;-70
2022/11/12 14:41:40;;;;;;;;;;;8.20;99.90;;;;;;4990277;28;20026;-70
2022/11/12 14:44:33;;;;;;;;;;;8.20;99.90;;;;;;5001414;28;19933;-70
2022/11/12 14:47:20;;;;;;;;;;;8.20;99.90;;;;;;4996880;28;19933;-70
2022/11/12 14:50:06;;;;;;;;;;;8.20;99.90;;;;;;4990672;28;20609;-70
2022/11/12 14:52:55;;;;;;;;;;;8.20;99.90;;;;;;4994796;28;20062;-70
2022/11/12 14:55:43;;;;;;;;;;;8.30;99.90;;;;;;4987398;28;19937;-70
2022/11/12 14:58:33;;;;;;;;;;;8.30;99.90;;;;;;4918751;28;1777051;-68
2022/11/12 15:01:21;;;;;;;;;;;8.30;99.90;;;;;;4986635;28;19941;-68
2022/11/12 15:04:18;;;;;;;;;;;8.30;99.90;;;;;;4983147;28;19940;-68
2022/11/12 15:07:03;;;;;;;;;;;8.20;99.90;;;;;;4980161;28;20518;-70
2022/11/12 15:09:48;;;;;;;;;;;8.20;99.90;;;;;;4979513;28;20072;-70
2022/11/12 15:12:34;;;;;;;;;;;8.20;99.90;;;;;;4986730;28;20335;-70
2022/11/12 15:15:21;;;;;;;;;;;8.10;99.90;;;;;;4984916;28;19940;-70
2022/11/12 15:18:08;;;;;;;;;;;8.10;99.90;;;;;;4983951;28;19936;-70
2022/11/12 15:21:06;;;;;;;;;;;8.10;99.90;;;;;;4986469;28;19955;-70
2022/11/12 15:23:52;;;;;;;;;;;8.20;99.90;;;;;;4981816;28;19941;-76
2022/11/12 15:26:39;;;;;;;;;;;8.40;99.90;;;;;;4987400;28;19988;-69
2022/11/12 15:29:26;;;;;;;;;;;8.50;99.90;;;;;;4988269;28;19933;-69
2022/11/12 15:32:31;;;;;;;;;;;8.60;99.90;;;;;;4990518;28;19933;-69
2022/11/12 15:35:35;;;;;;;;;;;8.60;99.90;;;;;;4992278;28;20513;-69
2022/11/12 15:38:24;;;;;;;;;;;8.70;99.90;;;;;;4988835;28;19988;-69
2022/11/12 15:41:19;;;;;;;;;;;8.70;99.90;;;;;;4989630;28;20009;-71
2022/11/12 15:44:05;;;;;;;;;;;8.70;99.90;;;;;;4986260;28;20053;-69
2022/11/12 15:46:51;;;;;;;;;;;8.70;99.90;;;;;;4991067;28;19979;-69
2022/11/12 15:49:46;;;;;;;;;;;8.70;99.90;;;;;;4983358;28;20832;-68
2022/11/12 15:52:31;;;;;;;;;;;8.70;99.90;;;;;;4981712;28;20019;-69
2022/11/12 15:55:18;;;;;;;;;;;8.70;99.90;;;;;;4978608;28;19932;-69
2022/11/12 15:58:04;;;;;;;;;;;8.70;99.90;;;;;;4982326;28;19944;-69
2022/11/12 16:00:50;;;;;;;;;;;8.70;99.90;;;;;;4983542;28;19932;-70
2022/11/12 16:03:35;;;;;;;;;;;8.70;99.90;;;;;;4985572;28;19932;-69
2022/11/12 16:06:21;;;;;;;;;;;8.70;99.90;;;;;;4989601;28;20007;-68
2022/11/12 16:09:06;;;;;;;;;;;8.70;99.90;;;;;;5067365;22;19979;-71
2022/11/12 16:11:56;;;;;;;;;;;8.70;99.90;;;;;;4991848;28;19964;-71
2022/11/12 16:14:41;;;;;;;;;;;8.70;99.90;;;;;;4987933;28;20012;-71
2022/11/12 16:17:27;;;;;;;;;;;8.70;99.90;;;;;;4991090;28;19932;-71
2022/11/12 16:20:13;;;;;;;;;;;8.70;99.90;;;;;;4993655;28;19933;-71
2022/11/12 16:22:59;;;;;;;;;;;8.70;99.90;;;;;;4991881;28;19936;-71
2022/11/12 16:25:46;;;;;;;;;;;8.70;99.90;;;;;;4988856;28;19941;-71
2022/11/12 16:28:33;;;;;;;;;;;8.70;99.90;;;;;;4994687;28;19933;-71
2022/11/12 16:31:20;;;;;;;;;;;8.70;99.90;;;;;;4985037;28;20008;-71
2022/11/12 16:34:05;;;;;;;;;;;8.70;99.90;;;;;;4982244;28;20233;-71
2022/11/12 16:36:50;;;;;;;;;;;8.70;99.90;;;;;;4981423;28;19932;-71
2022/11/12 16:39:36;;;;;;;;;;;8.70;99.90;;;;;;4995279;28;19956;-71
2022/11/12 16:42:21;;;;;;;;;;;8.70;99.90;;;;;;4992511;28;19937;-71
2022/11/12 16:45:09;;;;;;;;;;;8.70;99.90;;;;;;4987034;28;20503;-71
2022/11/12 16:47:55;;;;;;;;;;;8.70;99.90;;;;;;4985724;28;19932;-71
2022/11/12 16:50:41;;;;;;;;;;;8.60;99.90;;;;;;4991517;28;19937;-71
2022/11/12 16:53:26;;;;;;;;;;;8.60;99.90;;;;;;4989118;28;19933;-71
2022/11/12 16:56:12;;;;;;;;;;;8.60;99.90;;;;;;4994680;28;19933;-71
2022/11/12 16:58:57;;;;;;;;;;;8.60;99.90;;;;;;4991001;28;19941;-71
2022/11/12 17:01:44;;;;;;;;;;;8.60;99.90;;;;;;4985561;28;19940;-71
2022/11/12 17:04:29;;;;;;;;;;;8.60;99.90;;;;;;4991350;28;19936;-71